createdAt,value
2022-11-29T05:03:16.446Z,0.37
2022-11-29T05:06:29.814Z,0.40
2022-11-29T05:09:47.485Z,0.44
2022-11-29T05:13:11.401Z,0.43
2022-11-29T05:16:45.674Z,0.41
2022-11-29T05:20:01.556Z,0.39
2022-11-29T05:23:16.173Z,0.32
2022-11-29T05:26:42.986Z,0.36
2022-11-29T05:30:02.622Z,0.35
2022-11-29T05:33:15.575Z,0.48
2022-11-29T05:36:23.771Z,0.51
2022-11-29T05:40:09.682Z,0.39
2022-11-29T05:43:57.090Z,0.34
2022-11-29T05:47:02.532Z,0.28
2022-11-29T05:50:38.504Z,0.23
2022-11-29T05:53:57.460Z,0.37
2022-11-29T05:57:21.651Z,0.41
2022-11-29T06:00:29.107Z,0.40
2022-11-29T06:03:46.921Z,0.40
2022-11-29T06:07:00.385Z,0.36
2022-11-29T06:10:11.118Z,0.36
2022-11-29T06:13:36.126Z,0.39
2022-11-29T06:16:53.927Z,0.41
2022-11-29T06:20:23.506Z,0.34
2022-11-29T06:23:32.621Z,0.42
2022-11-29T06:26:44.954Z,0.46
2022-11-29T06:30:10.363Z,0.41
2022-11-29T06:33:37.594Z,0.45
2022-11-29T06:36:48.555Z,0.49
2022-11-29T06:39:51.508Z,0.60
2022-11-29T06:42:54.287Z,0.54
2022-11-29T06:46:03.475Z,0.50
2022-11-29T06:49:12.977Z,0.42
2022-11-29T06:52:34.117Z,0.49
2022-11-29T06:55:36.773Z,0.58
2022-11-29T06:58:48.174Z,0.62
2022-11-29T07:01:59.466Z,0.76
2022-11-29T07:05:24.193Z,0.70
2022-11-29T07:08:27.386Z,0.73
2022-11-29T07:11:30.506Z,0.72
2022-11-29T07:14:33.553Z,0.69
2022-11-29T07:18:01.211Z,0.66
2022-11-29T07:21:39.489Z,0.53
2022-11-29T07:24:48.158Z,0.75
2022-11-29T07:28:13.031Z,0.73
2022-11-29T07:31:38.579Z,0.67
2022-11-29T07:35:16.309Z,0.71
2022-11-29T07:38:30.204Z,0.74
2022-11-29T07:41:40.946Z,0.74
2022-11-29T07:45:14.608Z,0.81
2022-11-29T07:48:18.179Z,0.88
2022-11-29T07:51:21.135Z,1.02
2022-11-29T07:54:24.392Z,0.82
2022-11-29T07:57:26.916Z,0.76
2022-11-29T08:00:29.691Z,0.87
2022-11-29T08:03:33.896Z,0.87
2022-11-29T08:06:37.243Z,0.88
2022-11-29T08:09:40.900Z,1.01
2022-11-29T08:12:47.510Z,1.08
2022-11-29T08:15:50.259Z,1.17
2022-11-29T08:18:53.063Z,1.17
2022-11-29T08:21:55.845Z,1.20
2022-11-29T08:24:59.938Z,1.30
2022-11-29T08:28:03.738Z,1.28
2022-11-29T08:31:09.592Z,1.15
2022-11-29T08:34:12.678Z,1.29
2022-11-29T08:37:15.277Z,1.28
2022-11-29T08:40:18.565Z,1.34
2022-11-29T08:43:21.061Z,1.33
2022-11-29T08:46:43.829Z,1.30
2022-11-29T08:50:01.574Z,1.29
2022-11-29T08:53:23.162Z,1.18
2022-11-29T08:57:16.598Z,1.28
2022-11-29T08:59:48.574Z,1.29
2022-11-29T09:02:51.435Z,1.35
2022-11-29T09:05:54.363Z,1.31
2022-11-29T09:08:58.021Z,1.26
2022-11-29T09:12:00.774Z,1.16
2022-11-29T09:15:09.293Z,1.35
2022-11-29T09:18:12.405Z,1.42
2022-11-29T09:21:16.259Z,1.34
2022-11-29T09:24:20.316Z,1.47
2022-11-29T09:27:22.882Z,1.54
2022-11-29T09:30:26.554Z,1.66
2022-11-29T09:33:29.222Z,1.84
2022-11-29T09:36:32.327Z,1.72
2022-11-29T09:39:35.062Z,1.84
2022-11-29T09:43:00.790Z,1.88
2022-11-29T09:46:18.029Z,1.94
2022-11-29T09:49:23.735Z,2.03
2022-11-29T09:52:52.608Z,2.03
2022-11-29T09:56:16.678Z,2.09
2022-11-29T09:59:29.042Z,1.99
2022-11-29T10:02:39.623Z,2.06
2022-11-29T10:05:50.005Z,1.91
2022-11-29T10:09:17.140Z,2.13
2022-11-29T10:12:36.120Z,2.18
2022-11-29T10:15:43.401Z,2.26
2022-11-29T10:19:15.729Z,2.48
2022-11-29T10:22:25.669Z,2.52
2022-11-29T10:25:58.155Z,2.39
2022-11-29T10:29:19.635Z,2.48
2022-11-29T10:32:25.582Z,2.60
2022-11-29T10:35:29.521Z,2.63
2022-11-29T10:38:32.628Z,2.64
2022-11-29T10:41:35.744Z,2.65
2022-11-29T10:44:38.545Z,2.55
2022-11-29T10:47:41.149Z,2.77
2022-11-29T10:50:45.741Z,2.88
2022-11-29T10:53:52.229Z,2.93
2022-11-29T10:56:57.584Z,2.98
2022-11-29T11:00:11.432Z,2.94
2022-11-29T11:03:43.284Z,2.81
2022-11-29T11:06:56.347Z,2.46
2022-11-29T11:09:59.709Z,2.31
2022-11-29T11:13:18.750Z,2.47
2022-11-29T11:16:26.622Z,2.24
2022-11-29T11:19:30.596Z,2.12
2022-11-29T11:22:35.452Z,2.23
2022-11-29T11:25:40.346Z,2.26
2022-11-29T11:29:02.660Z,2.32
2022-11-29T11:32:15.293Z,2.30
2022-11-29T11:35:24.327Z,2.38
2022-11-29T11:38:27.040Z,2.52
2022-11-29T11:41:50.920Z,2.59
2022-11-29T11:44:53.940Z,2.68
2022-11-29T11:48:11.595Z,2.51
2022-11-29T11:51:23.392Z,2.60
2022-11-29T11:54:27.663Z,2.47
2022-11-29T11:57:31.468Z,2.36
2022-11-29T12:01:03.470Z,2.39
2022-11-29T12:04:27.371Z,2.27
2022-11-29T12:08:06.719Z,2.16
2022-11-29T12:11:08.150Z,2.15
2022-11-29T12:14:36.593Z,2.25
2022-11-29T12:18:01.318Z,2.26
2022-11-29T12:21:13.154Z,2.30
2022-11-29T12:24:27.473Z,2.26
2022-11-29T12:27:31.179Z,2.26
2022-11-29T12:30:34.554Z,2.17
2022-11-29T12:34:22.419Z,2.23
2022-11-29T12:38:03.563Z,2.16
2022-11-29T12:41:24.896Z,2.17
2022-11-29T12:45:10.001Z,2.22
2022-11-29T12:48:30.826Z,2.24
2022-11-29T12:51:57.958Z,2.38
2022-11-29T12:55:21.933Z,2.46
2022-11-29T12:59:00.924Z,2.53
2022-11-29T13:02:29.973Z,2.40
2022-11-29T13:05:51.027Z,2.50
2022-11-29T13:09:21.820Z,2.61
2022-11-29T13:12:42.695Z,2.77
2022-11-29T13:16:08.656Z,2.70
2022-11-29T13:19:30.640Z,2.59
2022-11-29T13:22:56.181Z,2.73
2022-11-29T13:26:01.794Z,2.79
2022-11-29T13:29:06.473Z,2.82
2022-11-29T13:32:31.423Z,2.76
2022-11-29T13:35:50.416Z,2.83
2022-11-29T13:39:25.960Z,2.82
2022-11-29T13:42:45.335Z,2.75
2022-11-29T13:45:58.684Z,2.70
2022-11-29T13:49:01.953Z,2.66
2022-11-29T13:52:06.452Z,2.67
2022-11-29T13:55:11.827Z,2.67
2022-11-29T13:58:17.787Z,2.62
2022-11-29T14:01:22.488Z,2.63
2022-11-29T14:04:45.971Z,2.68
2022-11-29T14:08:26.638Z,2.62
2022-11-29T14:12:01.803Z,2.64
2022-11-29T14:15:28.343Z,2.70
2022-11-29T14:18:37.424Z,2.58
2022-11-29T14:21:58.803Z,2.55
2022-11-29T14:25:49.163Z,2.49
2022-11-29T14:28:43.619Z,2.56
2022-11-29T14:31:49.558Z,2.53
2022-11-29T14:35:10.246Z,2.52
2022-11-29T14:38:31.140Z,2.57
2022-11-29T14:41:52.899Z,2.48
2022-11-29T14:44:59.939Z,2.45
2022-11-29T14:48:02.862Z,2.49
2022-11-29T14:51:14.978Z,2.53
2022-11-29T14:54:20.064Z,2.44
2022-11-29T14:57:52.205Z,2.48
2022-11-29T15:01:03.852Z,2.47
2022-11-29T15:04:10.145Z,2.44
2022-11-29T15:07:19.707Z,2.55
2022-11-29T15:10:27.296Z,2.57
2022-11-29T15:13:33.958Z,2.41
2022-11-29T15:16:55.207Z,2.35
2022-11-29T15:20:19.711Z,2.34
2022-11-29T15:23:22.544Z,2.31
2022-11-29T15:26:25.137Z,2.36
2022-11-29T15:29:29.910Z,2.38
2022-11-29T15:32:32.900Z,2.25
2022-11-29T15:35:36.687Z,2.28
2022-11-29T15:38:48.045Z,2.30
2022-11-29T15:41:50.960Z,2.25
2022-11-29T15:44:53.626Z,2.34
2022-11-29T15:48:14.056Z,2.27
2022-11-29T15:51:31.031Z,2.45
2022-11-29T15:54:39.762Z,2.36
2022-11-29T15:57:46.900Z,2.33
2022-11-29T16:00:51.925Z,2.25
2022-11-29T16:03:56.844Z,2.27
2022-11-29T16:06:59.459Z,2.23
2022-11-29T16:10:07.897Z,2.21
2022-11-29T16:13:25.457Z,2.19
2022-11-29T16:16:32.238Z,2.21
2022-11-29T16:19:37.768Z,2.21
2022-11-29T16:22:40.638Z,2.30
2022-11-29T16:25:55.807Z,2.27
2022-11-29T16:28:58.611Z,2.27
2022-11-29T16:32:13.389Z,2.26
2022-11-29T16:35:22.103Z,2.29
2022-11-29T16:38:24.941Z,2.37
2022-11-29T16:41:33.992Z,2.39
2022-11-29T16:44:39.291Z,2.28
2022-11-29T16:47:58.863Z,2.31
2022-11-29T16:51:13.729Z,2.16
2022-11-29T16:54:23.141Z,2.07
2022-11-29T16:57:28.245Z,2.26
2022-11-29T17:00:33.358Z,2.22
